createdAt,value
2023-03-03T00:01:50.658Z,101107.94
2023-03-03T00:04:17.759Z,101104.69
2023-03-03T00:06:46.085Z,101100.53
2023-03-03T00:09:13.205Z,101100.84
2023-03-03T00:11:40.302Z,101089.31
2023-03-03T00:14:22.295Z,101094.72
2023-03-03T00:16:50.028Z,101090.28
2023-03-03T00:19:19.961Z,101089.31
2023-03-03T00:21:49.073Z,101096.47
2023-03-03T00:24:36.892Z,101089.13
2023-03-03T00:27:27.548Z,101087.38
2023-03-03T00:29:57.233Z,101088.53
2023-03-03T00:32:24.383Z,101085.59
2023-03-03T00:34:53.672Z,101084.69
2023-03-03T00:37:27.460Z,101084.16
2023-03-03T00:40:13.958Z,101075.06
2023-03-03T00:42:41.442Z,101078.06
2023-03-03T00:45:31.676Z,101077.63
2023-03-03T00:47:59.422Z,101067.16
2023-03-03T00:50:36.052Z,101068.16
2023-03-03T00:53:12.843Z,101063.28
2023-03-03T00:55:40.669Z,101055.69
2023-03-03T00:58:08.148Z,101058.28
2023-03-03T01:00:41.932Z,101054.41
2023-03-03T01:03:16.351Z,101055.00
2023-03-03T01:05:44.042Z,101043.69
2023-03-03T01:08:11.974Z,101043.75
2023-03-03T01:10:51.309Z,101044.56
2023-03-03T01:13:20.957Z,101030.66
2023-03-03T01:15:48.313Z,101033.19
2023-03-03T01:18:15.681Z,101033.19
2023-03-03T01:20:43.198Z,101024.53
2023-03-03T01:23:10.708Z,101028.59
2023-03-03T01:25:38.006Z,101026.19
2023-03-03T01:28:05.933Z,101027.00
2023-03-03T01:30:33.126Z,101024.63
2023-03-03T01:33:00.217Z,101023.50
2023-03-03T01:35:27.574Z,101019.06
2023-03-03T01:37:54.682Z,101019.06
2023-03-03T01:40:24.834Z,101023.22
2023-03-03T01:42:52.967Z,101012.06
2023-03-03T01:45:27.152Z,101009.34
2023-03-03T01:48:00.569Z,101013.34
2023-03-03T01:50:39.903Z,101011.06
2023-03-03T01:53:13.856Z,101014.44
2023-03-03T01:55:42.767Z,101009.78
2023-03-03T01:58:21.341Z,101010.06
2023-03-03T02:00:53.396Z,101006.81
2023-03-03T02:03:22.856Z,101007.06
2023-03-03T02:05:52.240Z,101010.28
2023-03-03T02:08:27.353Z,101017.59
2023-03-03T02:10:56.050Z,101005.63
2023-03-03T02:13:25.529Z,101014.97
2023-03-03T02:15:57.006Z,101014.44
2023-03-03T02:18:25.136Z,101011.91
2023-03-03T02:21:04.427Z,101009.84
2023-03-03T02:23:34.362Z,101004.75
2023-03-03T02:26:12.496Z,101005.66
2023-03-03T02:28:41.135Z,101003.25
2023-03-03T02:31:15.935Z,100995.47
2023-03-03T02:33:47.382Z,101000.50
2023-03-03T02:36:17.393Z,101003.28
2023-03-03T02:38:50.050Z,101000.63
2023-03-03T02:41:22.960Z,101001.63
2023-03-03T02:44:01.243Z,101001.53
2023-03-03T02:46:37.009Z,101005.06
2023-03-03T02:49:05.770Z,101002.38
2023-03-03T02:51:33.603Z,100998.81
2023-03-03T02:54:02.129Z,100997.28
2023-03-03T02:56:31.786Z,100998.00
2023-03-03T02:58:59.226Z,101007.69
2023-03-03T03:01:28.004Z,101004.34
2023-03-03T03:03:55.306Z,100997.81
2023-03-03T03:06:23.487Z,100989.97
2023-03-03T03:08:50.663Z,100984.75
2023-03-03T03:11:17.757Z,100984.81
2023-03-03T03:13:45.116Z,100985.78
2023-03-03T03:16:13.057Z,100989.84
2023-03-03T03:18:40.165Z,100990.06
2023-03-03T03:21:12.305Z,100982.47
2023-03-03T03:23:41.181Z,100978.03
2023-03-03T03:26:08.693Z,100984.03
2023-03-03T03:28:36.529Z,100985.69
2023-03-03T03:31:05.297Z,100984.81
2023-03-03T03:33:34.373Z,100984.81
2023-03-03T03:36:02.168Z,100979.72
2023-03-03T03:38:30.125Z,100982.34
2023-03-03T03:40:58.172Z,100977.84
2023-03-03T03:43:25.836Z,100974.34
2023-03-03T03:45:53.465Z,100978.41
2023-03-03T03:48:20.975Z,100980.13
2023-03-03T03:50:49.840Z,100977.28
2023-03-03T03:53:18.292Z,100980.94
2023-03-03T03:55:47.305Z,100979.28
2023-03-03T03:58:17.305Z,100975.84
2023-03-03T04:00:48.884Z,100963.56
2023-03-03T04:03:17.053Z,100967.84
2023-03-03T04:05:46.196Z,100964.19
2023-03-03T04:08:13.632Z,100960.06
2023-03-03T04:10:42.898Z,100962.53
2023-03-03T04:13:10.091Z,100963.22
2023-03-03T04:15:37.366Z,100954.72
2023-03-03T04:18:04.740Z,100949.59
2023-03-03T04:20:31.925Z,100949.56
2023-03-03T04:22:59.140Z,100953.16
2023-03-03T04:25:26.761Z,100958.16
2023-03-03T04:27:54.884Z,100952.13
2023-03-03T04:30:23.262Z,100949.50
2023-03-03T04:32:54.283Z,100949.56
2023-03-03T04:35:24.266Z,100959.56
2023-03-03T04:37:51.417Z,100945.13
2023-03-03T04:40:18.661Z,100948.72
2023-03-03T04:42:48.514Z,100943.53
2023-03-03T04:45:15.771Z,100947.78
2023-03-03T04:47:42.932Z,100952.03
2023-03-03T04:50:11.013Z,100940.78
2023-03-03T04:52:38.247Z,100952.91
2023-03-03T04:55:10.282Z,100939.91
2023-03-03T04:57:38.642Z,100948.75
2023-03-03T05:00:06.880Z,100949.81
2023-03-03T05:02:34.108Z,100945.16
2023-03-03T05:05:01.485Z,100951.63
2023-03-03T05:07:28.604Z,100951.53
2023-03-03T05:09:55.733Z,100948.06
2023-03-03T05:12:23.024Z,100954.81
2023-03-03T05:14:50.159Z,100957.78
2023-03-03T05:17:17.213Z,100955.13
2023-03-03T05:19:44.385Z,100968.84
2023-03-03T05:22:11.533Z,100965.38
2023-03-03T05:24:38.675Z,100960.66
2023-03-03T05:27:05.840Z,100967.91
2023-03-03T05:29:33.646Z,100969.69
2023-03-03T05:32:01.508Z,100962.75
2023-03-03T05:34:28.768Z,100972.28
2023-03-03T05:36:55.842Z,100972.50
2023-03-03T05:39:23.496Z,100972.47
2023-03-03T05:41:50.736Z,100968.28
2023-03-03T05:44:20.514Z,100972.66
2023-03-03T05:46:47.758Z,100973.41
2023-03-03T05:49:14.806Z,100965.00
2023-03-03T05:51:41.848Z,100976.38
2023-03-03T05:54:09.050Z,100968.50
2023-03-03T05:56:36.174Z,100967.81
2023-03-03T05:59:03.704Z,100968.50
2023-03-03T06:01:30.880Z,100978.97
2023-03-03T06:03:58.025Z,100969.38
2023-03-03T06:06:25.223Z,100968.63
2023-03-03T06:08:56.857Z,100969.50
2023-03-03T06:11:24.367Z,100960.81
2023-03-03T06:13:51.622Z,100964.56
2023-03-03T06:16:19.275Z,100964.50
2023-03-03T06:18:46.523Z,100966.44
2023-03-03T06:21:13.748Z,100962.94
2023-03-03T06:23:41.355Z,100961.81
2023-03-03T06:26:08.711Z,100961.88
2023-03-03T06:28:35.885Z,100961.19
2023-03-03T06:31:03.015Z,100969.97
2023-03-03T06:33:30.282Z,100971.69
2023-03-03T06:35:57.477Z,100968.34
2023-03-03T06:38:24.720Z,100970.03
2023-03-03T06:40:51.767Z,100971.16
2023-03-03T06:43:18.998Z,100968.44
2023-03-03T06:45:46.855Z,100972.13
2023-03-03T06:48:13.987Z,100975.00
2023-03-03T06:50:41.068Z,100977.78
2023-03-03T06:53:16.184Z,100981.38
2023-03-03T06:55:45.126Z,100978.78
2023-03-03T06:58:18.040Z,100983.22
2023-03-03T07:00:58.486Z,100980.72
2023-03-03T07:03:29.830Z,100980.69
2023-03-03T07:05:57.967Z,100978.94
2023-03-03T07:08:26.301Z,100973.63
2023-03-03T07:10:54.340Z,100977.91
2023-03-03T07:13:26.087Z,100974.41
2023-03-03T07:15:54.909Z,100971.81
2023-03-03T07:18:37.528Z,100967.34
2023-03-03T07:21:16.874Z,100969.84
2023-03-03T07:23:46.216Z,100964.63
2023-03-03T07:26:16.329Z,100962.88
2023-03-03T07:28:51.759Z,100960.47
2023-03-03T07:31:27.802Z,100965.47
2023-03-03T07:33:55.919Z,100956.56
2023-03-03T07:36:36.437Z,100953.16
2023-03-03T07:39:26.311Z,100949.00
2023-03-03T07:42:00.661Z,100956.09
2023-03-03T07:44:35.920Z,100946.59
2023-03-03T07:47:25.397Z,100952.22
2023-03-03T07:49:55.766Z,100948.50
2023-03-03T07:52:41.722Z,100939.91
2023-03-03T07:55:28.756Z,100943.84
2023-03-03T07:57:59.134Z,100935.16
2023-03-03T08:00:29.306Z,100931.78
2023-03-03T08:02:58.800Z,100934.41
2023-03-03T08:05:36.765Z,100936.19
2023-03-03T08:08:22.135Z,100942.31
2023-03-03T08:10:52.848Z,100935.13
2023-03-03T08:13:22.608Z,100936.06
2023-03-03T08:15:57.473Z,100937.00
2023-03-03T08:18:36.962Z,100928.66
2023-03-03T08:21:24.976Z,100935.91
2023-03-03T08:23:53.828Z,100934.16
2023-03-03T08:26:22.334Z,100931.63
2023-03-03T08:28:49.949Z,100924.41
2023-03-03T08:31:30.793Z,100924.31
2023-03-03T08:34:05.441Z,100928.25
2023-03-03T08:36:34.598Z,100926.19
2023-03-03T08:39:02.305Z,100921.84
2023-03-03T08:41:29.435Z,100929.28
2023-03-03T08:43:56.566Z,100925.75
2023-03-03T08:46:23.858Z,100925.53
2023-03-03T08:48:51.530Z,100926.44
2023-03-03T08:51:18.623Z,100921.63
2023-03-03T08:53:45.691Z,100921.25
2023-03-03T08:56:12.969Z,100923.41
2023-03-03T08:58:49.895Z,100918.72
2023-03-03T09:01:27.207Z,100917.38
2023-03-03T09:03:54.354Z,100933.69
2023-03-03T09:06:21.593Z,100933.88
2023-03-03T09:08:49.499Z,100925.56
2023-03-03T09:11:27.618Z,100926.03
2023-03-03T09:14:05.020Z,100927.16
2023-03-03T09:16:39.102Z,100920.78
2023-03-03T09:19:37.542Z,100921.44
2023-03-03T09:22:36.820Z,100908.31
2023-03-03T09:25:32.016Z,100912.97
2023-03-03T09:28:00.115Z,100901.28
2023-03-03T09:30:28.254Z,100891.78
2023-03-03T09:32:57.346Z,100896.22
2023-03-03T09:35:36.154Z,100890.50
2023-03-03T09:38:26.396Z,100895.94
2023-03-03T09:41:37.686Z,100887.50
2023-03-03T09:44:46.067Z,100888.22
2023-03-03T09:47:22.259Z,100897.25
2023-03-03T09:50:08.375Z,100880.81
2023-03-03T09:52:41.475Z,100881.34
2023-03-03T09:55:57.937Z,100877.09
2023-03-03T09:58:45.842Z,100877.69
2023-03-03T10:01:37.180Z,100861.53
2023-03-03T10:04:07.458Z,100863.69
2023-03-03T10:06:45.840Z,100852.63
2023-03-03T10:09:40.160Z,100854.16
2023-03-03T10:12:35.688Z,100842.97
2023-03-03T10:15:02.684Z,100846.38
2023-03-03T10:17:29.782Z,100836.25
2023-03-03T10:20:02.732Z,100839.69
2023-03-03T10:22:46.390Z,100837.00
2023-03-03T10:25:38.221Z,100834.50
2023-03-03T10:28:37.303Z,100823.09
2023-03-03T10:31:29.267Z,100826.66
2023-03-03T10:34:08.166Z,100819.31
2023-03-03T10:36:55.566Z,100824.84
2023-03-03T10:39:31.569Z,100826.94
2023-03-03T10:42:22.508Z,100823.31
2023-03-03T10:45:21.618Z,100807.66
2023-03-03T10:48:10.491Z,100814.47
2023-03-03T10:51:02.357Z,100816.38
2023-03-03T10:53:41.164Z,100822.16
2023-03-03T10:56:26.315Z,100815.88
2023-03-03T10:59:05.377Z,100804.16
2023-03-03T11:01:39.235Z,100800.84
2023-03-03T11:04:25.161Z,100794.59
2023-03-03T11:07:13.165Z,100783.75
2023-03-03T11:09:45.057Z,100776.97
2023-03-03T11:12:38.183Z,100763.88
2023-03-03T11:15:30.954Z,100763.00
2023-03-03T11:18:10.114Z,100754.91
2023-03-03T11:20:52.991Z,100753.19
2023-03-03T11:23:35.236Z,100744.00
2023-03-03T11:26:14.972Z,100737.09
2023-03-03T11:29:11.760Z,100734.34
2023-03-03T11:31:47.088Z,100738.19
2023-03-03T11:34:19.919Z,100741.16
2023-03-03T11:36:55.679Z,100730.34
2023-03-03T11:39:29.062Z,100729.19
2023-03-03T11:42:47.469Z,100724.56
2023-03-03T11:45:20.056Z,100732.16
2023-03-03T11:48:09.238Z,100732.53
2023-03-03T11:50:44.224Z,100720.22
2023-03-03T11:53:49.004Z,100718.81
2023-03-03T11:56:42.207Z,100723.66
2023-03-03T11:59:12.047Z,100712.03
2023-03-03T12:02:17.547Z,100723.84
2023-03-03T12:04:56.403Z,100723.78
2023-03-03T12:07:35.643Z,100720.94
2023-03-03T12:10:15.159Z,100715.72
2023-03-03T12:12:51.872Z,100719.72
2023-03-03T12:15:33.956Z,100708.75
2023-03-03T12:18:27.169Z,100711.78
2023-03-03T12:21:03.476Z,100707.06
2023-03-03T12:24:12.434Z,100716.25
2023-03-03T12:27:03.655Z,100718.81
2023-03-03T12:29:41.920Z,100715.03
2023-03-03T12:32:23.529Z,100714.94
2023-03-03T12:35:13.885Z,100714.22
2023-03-03T12:37:59.745Z,100724.91
2023-03-03T12:40:37.326Z,100721.41
2023-03-03T12:43:23.148Z,100720.47
2023-03-03T12:46:10.371Z,100711.69
2023-03-03T12:48:45.910Z,100716.00
2023-03-03T12:51:31.585Z,100716.81
2023-03-03T12:54:23.098Z,100717.81
2023-03-03T12:57:04.089Z,100723.09
2023-03-03T12:59:53.557Z,100715.00
2023-03-03T13:02:41.333Z,100724.59
2023-03-03T13:05:27.628Z,100725.25
2023-03-03T13:08:18.947Z,100718.31
2023-03-03T13:11:01.797Z,100713.06
2023-03-03T13:14:12.857Z,100719.34
2023-03-03T13:17:08.982Z,100720.06
2023-03-03T13:19:48.571Z,100711.44
2023-03-03T13:22:31.396Z,100713.16
2023-03-03T13:25:27.589Z,100708.78
2023-03-03T13:28:02.593Z,100704.56
2023-03-03T13:30:40.488Z,100708.00
2023-03-03T13:33:27.469Z,100709.78
2023-03-03T13:36:00.179Z,100708.28
2023-03-03T13:38:32.787Z,100702.09
2023-03-03T13:41:25.051Z,100707.91
2023-03-03T13:43:57.730Z,100704.41
2023-03-03T13:46:41.661Z,100702.56
2023-03-03T13:49:20.378Z,100701.47
2023-03-03T13:52:08.208Z,100705.78
2023-03-03T13:54:53.605Z,100708.34
2023-03-03T13:57:40.282Z,100700.50
2023-03-03T14:00:22.231Z,100699.66
2023-03-03T14:03:23.342Z,100696.28
2023-03-03T14:06:02.408Z,100693.44
2023-03-03T14:08:32.311Z,100699.50
2023-03-03T14:11:28.448Z,100702.13
2023-03-03T14:14:12.628Z,100699.50
2023-03-03T14:16:55.740Z,100691.78
2023-03-03T14:19:33.330Z,100697.75
2023-03-03T14:22:12.345Z,100694.38
2023-03-03T14:25:01.841Z,100686.56
2023-03-03T14:27:42.014Z,100691.97
2023-03-03T14:30:33.299Z,100686.00
2023-03-03T14:33:09.469Z,100693.75
2023-03-03T14:35:41.402Z,100698.81
2023-03-03T14:38:08.907Z,100703.16
2023-03-03T14:40:39.203Z,100696.94
2023-03-03T14:43:26.722Z,100704.34
2023-03-03T14:45:55.198Z,100703.41
2023-03-03T14:48:23.360Z,100713.78
2023-03-03T14:51:04.841Z,100712.03
2023-03-03T14:53:36.034Z,100717.19
2023-03-03T14:56:25.156Z,100713.84
2023-03-03T14:58:54.389Z,100712.06
2023-03-03T15:01:24.551Z,100709.38
2023-03-03T15:03:57.692Z,100706.72
2023-03-03T15:06:52.063Z,100708.44
2023-03-03T15:09:27.661Z,100707.59
2023-03-03T15:11:56.913Z,100709.72
2023-03-03T15:14:38.830Z,100709.72
2023-03-03T15:17:26.792Z,100709.84
2023-03-03T15:20:38.311Z,100702.53
2023-03-03T15:23:08.161Z,100706.00
2023-03-03T15:25:54.989Z,100703.25
2023-03-03T15:28:43.267Z,100715.47
2023-03-03T15:31:27.493Z,100714.50
2023-03-03T15:34:23.112Z,100717.91
2023-03-03T15:37:07.721Z,100716.94
2023-03-03T15:39:54.047Z,100723.06
2023-03-03T15:42:35.923Z,100728.22
2023-03-03T15:45:16.005Z,100722.09
2023-03-03T15:48:16.976Z,100730.81
2023-03-03T15:51:06.872Z,100726.59
2023-03-03T15:54:01.784Z,100726.44
2023-03-03T15:56:48.044Z,100726.44
2023-03-03T15:59:46.623Z,100730.09
2023-03-03T16:02:39.664Z,100727.44
2023-03-03T16:05:20.777Z,100729.16
2023-03-03T16:08:01.056Z,100734.31
2023-03-03T16:10:40.470Z,100736.19
2023-03-03T16:13:25.852Z,100742.41
2023-03-03T16:15:56.027Z,100742.56
2023-03-03T16:18:58.532Z,100740.91
2023-03-03T16:22:03.186Z,100746.50
2023-03-03T16:24:48.608Z,100751.63
2023-03-03T16:27:49.087Z,100756.25
2023-03-03T16:30:43.593Z,100759.81
2023-03-03T16:33:38.040Z,100767.75
2023-03-03T16:36:23.435Z,100768.97
2023-03-03T16:39:13.333Z,100773.88
2023-03-03T16:42:12.388Z,100772.97
2023-03-03T16:44:47.983Z,100769.69
2023-03-03T16:47:36.996Z,100780.47
2023-03-03T16:50:13.235Z,100775.19
2023-03-03T16:53:14.810Z,100772.63
2023-03-03T16:56:08.338Z,100781.41
2023-03-03T16:58:49.164Z,100783.84
2023-03-03T17:01:56.424Z,100780.88
2023-03-03T17:05:06.642Z,100792.25
2023-03-03T17:08:10.944Z,100786.13
2023-03-03T17:10:53.952Z,100788.72
2023-03-03T17:13:47.106Z,100790.44
2023-03-03T17:16:21.472Z,100792.03
2023-03-03T17:19:05.937Z,100785.69
2023-03-03T17:21:50.352Z,100793.56
2023-03-03T17:24:51.748Z,100795.78
2023-03-03T17:27:28.326Z,100796.75
2023-03-03T17:30:14.042Z,100794.44
2023-03-03T17:32:49.591Z,100794.59
2023-03-03T17:35:59.513Z,100797.19
2023-03-03T17:39:04.311Z,100801.38
2023-03-03T17:41:51.603Z,100797.88
2023-03-03T17:45:06.643Z,100797.91
2023-03-03T17:47:55.947Z,100792.69
2023-03-03T17:50:57.452Z,100802.97
2023-03-03T17:54:16.860Z,100796.78
2023-03-03T17:56:50.745Z,100801.22
2023-03-03T17:59:47.994Z,100803.88
2023-03-03T18:02:21.103Z,100803.94
2023-03-03T18:05:18.808Z,100804.91
2023-03-03T18:08:09.948Z,100811.81
2023-03-03T18:11:01.768Z,100817.00
2023-03-03T18:13:35.222Z,100818.72
2023-03-03T18:16:18.797Z,100816.13
2023-03-03T18:19:12.919Z,100815.41
2023-03-03T18:21:48.830Z,100813.97
2023-03-03T18:24:51.161Z,100812.28
2023-03-03T18:27:24.211Z,100815.84
2023-03-03T18:30:18.768Z,100814.91
2023-03-03T18:33:01.364Z,100811.44
2023-03-03T18:35:33.995Z,100812.28
2023-03-03T18:38:16.286Z,100809.59
2023-03-03T18:41:04.662Z,100812.78
2023-03-03T18:43:43.792Z,100818.91
2023-03-03T18:46:23.889Z,100822.28
2023-03-03T18:48:54.230Z,100830.09
2023-03-03T18:51:39.466Z,100824.88
2023-03-03T18:54:12.772Z,100827.44
2023-03-03T18:57:00.682Z,100841.31
2023-03-03T18:59:30.689Z,100847.25
2023-03-03T19:02:12.623Z,100845.34
2023-03-03T19:04:55.786Z,100846.22
2023-03-03T19:07:27.914Z,100843.59
2023-03-03T19:10:01.668Z,100847.31
2023-03-03T19:12:44.398Z,100853.69
2023-03-03T19:15:29.809Z,100843.38
2023-03-03T19:18:03.454Z,100832.16
2023-03-03T19:20:43.436Z,100840.03
2023-03-03T19:23:20.447Z,100838.44
2023-03-03T19:26:25.324Z,100850.56
2023-03-03T19:29:11.965Z,100844.25
2023-03-03T19:32:17.119Z,100843.38
2023-03-03T19:35:08.563Z,100840.03
2023-03-03T19:37:41.431Z,100843.78
2023-03-03T19:40:20.935Z,100847.13
2023-03-03T19:42:50.674Z,100845.59
2023-03-03T19:45:32.108Z,100835.16
2023-03-03T19:48:15.266Z,100836.84
2023-03-03T19:51:02.109Z,100836.00
2023-03-03T19:53:51.051Z,100830.78
2023-03-03T19:56:29.823Z,100838.69
2023-03-03T19:59:09.968Z,100838.63
2023-03-03T20:01:59.641Z,100843.88
2023-03-03T20:04:45.156Z,100840.41
2023-03-03T20:07:33.930Z,100847.28
2023-03-03T20:10:06.758Z,100846.41
2023-03-03T20:12:53.407Z,100847.22
2023-03-03T20:15:28.563Z,100847.28
2023-03-03T20:18:01.926Z,100847.34
2023-03-03T20:20:55.617Z,100854.25
2023-03-03T20:23:37.337Z,100851.75
2023-03-03T20:26:28.189Z,100849.84
2023-03-03T20:29:36.701Z,100855.88
2023-03-03T20:32:20.895Z,100861.06
2023-03-03T20:35:09.722Z,100858.56
2023-03-03T20:38:07.127Z,100861.22
2023-03-03T20:40:44.136Z,100856.06
2023-03-03T20:43:48.346Z,100859.63
2023-03-03T20:47:09.461Z,100848.78
2023-03-03T20:50:24.562Z,100854.63
2023-03-03T20:52:57.460Z,100852.56
2023-03-03T20:55:47.806Z,100848.38
2023-03-03T20:58:36.509Z,100859.22
2023-03-03T21:01:32.899Z,100854.69
2023-03-03T21:04:19.937Z,100859.31
2023-03-03T21:06:48.237Z,100865.63
2023-03-03T21:09:28.101Z,100856.97
2023-03-03T21:11:56.544Z,100848.28
2023-03-03T21:14:34.281Z,100848.28
2023-03-03T21:17:11.713Z,100846.56
2023-03-03T21:19:38.770Z,100831.69
2023-03-03T21:22:06.039Z,100837.81
2023-03-03T21:24:55.527Z,100836.91
2023-03-03T21:27:27.265Z,100840.06
2023-03-03T21:30:12.506Z,100847.22
2023-03-03T21:32:48.266Z,100832.44
2023-03-03T21:35:19.051Z,100846.44
2023-03-03T21:37:53.726Z,100839.50
2023-03-03T21:40:27.609Z,100845.56
2023-03-03T21:42:57.271Z,100842.94
2023-03-03T21:45:24.800Z,100840.31
2023-03-03T21:47:54.974Z,100847.38
2023-03-03T21:50:22.279Z,100850.94
2023-03-03T21:52:49.506Z,100853.53
2023-03-03T21:55:16.588Z,100852.69
2023-03-03T21:57:43.678Z,100850.81
2023-03-03T22:00:11.942Z,100852.47
2023-03-03T22:02:38.994Z,100848.06
2023-03-03T22:05:07.750Z,100851.59
2023-03-03T22:07:34.928Z,100842.69
2023-03-03T22:10:03.130Z,100847.78
2023-03-03T22:12:30.208Z,100849.59
2023-03-03T22:14:57.288Z,100843.47
2023-03-03T22:17:25.640Z,100845.13
2023-03-03T22:19:52.978Z,100843.16
2023-03-03T22:22:20.082Z,100839.53
2023-03-03T22:24:47.382Z,100843.03
2023-03-03T22:27:14.671Z,100837.16
2023-03-03T22:29:41.704Z,100837.78
2023-03-03T22:32:08.917Z,100845.50
2023-03-03T22:34:36.321Z,100833.38
2023-03-03T22:37:03.459Z,100821.06
2023-03-03T22:39:30.601Z,100827.41
2023-03-03T22:41:57.749Z,100829.22
2023-03-03T22:44:24.886Z,100827.47
2023-03-03T22:46:51.952Z,100831.97
2023-03-03T22:49:19.032Z,100836.44
2023-03-03T22:51:46.138Z,100837.97
2023-03-03T22:54:13.199Z,100838.72
2023-03-03T22:56:40.300Z,100836.72
2023-03-03T22:59:07.443Z,100840.13
2023-03-03T23:01:34.654Z,100845.19
2023-03-03T23:04:01.720Z,100844.25
2023-03-03T23:06:28.798Z,100848.19
2023-03-03T23:08:55.906Z,100845.81
2023-03-03T23:11:24.765Z,100840.41
2023-03-03T23:13:51.789Z,100829.97
2023-03-03T23:16:19.022Z,100829.44
2023-03-03T23:18:46.424Z,100827.63
2023-03-03T23:21:13.511Z,100823.16
2023-03-03T23:23:40.537Z,100827.66
2023-03-03T23:26:07.638Z,100833.81
2023-03-03T23:28:34.865Z,100839.88
2023-03-03T23:31:02.192Z,100832.94
2023-03-03T23:33:29.316Z,100830.41
2023-03-03T23:35:56.393Z,100839.16
2023-03-03T23:38:23.469Z,100834.75
2023-03-03T23:40:50.568Z,100835.56
2023-03-03T23:43:17.636Z,100837.97
2023-03-03T23:45:45.221Z,100831.97
2023-03-03T23:48:12.416Z,100846.06
2023-03-03T23:50:39.680Z,100846.88
2023-03-03T23:53:07.863Z,100848.25
2023-03-03T23:55:36.352Z,100854.81
2023-03-03T23:58:04.641Z,100842.41
